Terminal Aerodrome Forecast
Issued by NWS

Current Version | Previous Version | Text Only | Print | Product List | Glossary On
Versions: 1 2 3 4 5 6 7 8 9 10 11 12 13 14 15 16 17 18 19 20 21 22 23
954
FTUS43 KAPX 230529
TAFTVC
TAF
KTVC 230529Z 2306/2406 28005KT 6SM BR SCT008 OVC015
     FM230900 29008KT 3SM BR OVC004
     FM231400 34011G20KT P6SM OVC012
     FM231700 36012G21KT P6SM OVC025
     FM240100 02006KT P6SM OVC040=

USA.gov is the U.S. government's official web portal to all federal, state and local government web resources and services.